Time;durP1;ratioP1;P1;durP2;ratioP2;P2;SDS_P1;SDS_P2;PMS_P1;PMS_P2;Temp;Humidity;BMP_temperature;BMP_pressure;BME280_temperature;BME280_humidity;BME280_pressure;Samples;Min_cycle;Max_cycle;Signal;HPM_P1;HPM_P2
2024/01/21 00:00:26;;;;;;;2.13;1.53;;;;;0.30;101905.00;;;;4933509;29;20236;-67
2024/01/21 00:03:12;;;;;;;3.33;1.67;;;;;0.30;101911.00;;;;4931437;28;20237;-69
2024/01/21 00:06:00;;;;;;;5.00;2.03;;;;;0.40;101900.00;;;;4939348;29;20961;-68
2024/01/21 00:08:46;;;;;;;1.73;1.63;;;;;0.40;101886.00;;;;4935496;29;20241;-69
2024/01/21 00:11:34;;;;;;;2.03;1.90;;;;;0.30;101883.00;;;;4934679;29;20362;-66
2024/01/21 00:14:20;;;;;;;2.10;2.00;;;;;0.30;101856.00;;;;4934296;28;20335;-69
2024/01/21 00:17:07;;;;;;;1.67;1.57;;;;;0.40;101833.00;;;;4928764;29;20229;-67
2024/01/21 00:19:53;;;;;;;1.73;1.53;;;;;0.60;101812.00;;;;4938056;29;20294;-69
2024/01/21 00:22:41;;;;;;;2.33;1.77;;;;;0.80;101820.00;;;;4943507;29;20706;-69
2024/01/21 00:25:27;;;;;;;1.37;1.27;;;;;0.90;101818.00;;;;4933354;29;20241;-68
2024/01/21 00:28:14;;;;;;;1.47;1.37;;;;;1.10;101823.00;;;;4937730;29;20237;-70
2024/01/21 00:31:03;;;;;;;1.90;1.77;;;;;1.20;101836.00;;;;4940781;29;20249;-69
2024/01/21 00:33:49;;;;;;;2.20;1.33;;;;;1.10;101821.00;;;;4931307;29;20284;-69
2024/01/21 00:36:36;;;;;;;1.30;1.20;;;;;1.20;101822.00;;;;4921850;29;20745;-68
2024/01/21 00:39:24;;;;;;;1.10;1.10;;;;;1.10;101817.00;;;;4934190;29;20331;-69
2024/01/21 00:42:10;;;;;;;1.43;1.33;;;;;1.10;101806.00;;;;4926119;29;20284;-68
2024/01/21 00:44:57;;;;;;;0.97;0.97;;;;;1.10;101807.00;;;;4932466;28;20229;-69
2024/01/21 00:47:43;;;;;;;1.27;1.23;;;;;1.40;101803.00;;;;4931248;29;20710;-68
2024/01/21 00:50:29;;;;;;;1.23;1.23;;;;;1.60;101796.00;;;;4938956;29;20232;-69
2024/01/21 00:53:15;;;;;;;1.10;1.10;;;;;1.40;101791.00;;;;4936120;28;20376;-67
2024/01/21 00:56:03;;;;;;;1.10;1.07;;;;;1.30;101789.00;;;;4937953;29;20228;-69
2024/01/21 00:58:49;;;;;;;1.40;1.30;;;;;1.40;101795.00;;;;4931670;29;20319;-69
2024/01/21 01:01:37;;;;;;;1.40;1.27;;;;;1.40;101772.00;;;;4935560;29;20610;-69
2024/01/21 01:04:24;;;;;;;1.23;0.97;;;;;1.40;101791.00;;;;4931532;28;20298;-70
2024/01/21 01:07:10;;;;;;;1.20;1.10;;;;;1.50;101789.00;;;;4933335;29;20232;-68
2024/01/21 01:09:57;;;;;;;3.30;1.13;;;;;1.50;101778.00;;;;4935924;29;20235;-70
2024/01/21 01:12:44;;;;;;;2.00;1.20;;;;;1.40;101785.00;;;;4920629;29;20744;-69
2024/01/21 01:15:31;;;;;;;1.37;1.13;;;;;1.50;101781.00;;;;4930512;29;20894;-69
2024/01/21 01:18:17;;;;;;;1.27;1.17;;;;;1.60;101780.00;;;;4928126;29;20242;-69
2024/01/21 01:21:04;;;;;;;1.20;1.20;;;;;1.60;101784.00;;;;4932268;29;20248;-69
2024/01/21 01:23:50;;;;;;;1.97;0.90;;;;;1.60;101778.00;;;;4938785;28;20337;-69
2024/01/21 01:26:36;;;;;;;1.00;1.00;;;;;1.80;101777.00;;;;4938509;29;20287;-70
2024/01/21 01:29:24;;;;;;;2.57;1.60;;;;;1.80;101773.00;;;;4929846;29;20687;-67
2024/01/21 01:32:10;;;;;;;1.03;1.00;;;;;1.70;101774.00;;;;4922765;29;20234;-69
2024/01/21 01:34:56;;;;;;;1.50;1.40;;;;;1.60;101770.00;;;;4937391;28;20232;-69
2024/01/21 01:37:43;;;;;;;0.77;0.77;;;;;1.70;101773.00;;;;4929941;29;20601;-68
2024/01/21 01:40:29;;;;;;;0.80;0.80;;;;;1.60;101757.00;;;;4932614;29;20233;-69
2024/01/21 01:43:15;;;;;;;1.20;1.07;;;;;1.60;101757.00;;;;4927662;28;20245;-68
2024/01/21 01:46:03;;;;;;;0.77;0.70;;;;;1.50;101761.00;;;;4937100;29;20629;-69
2024/01/21 01:48:50;;;;;;;1.20;1.20;;;;;1.60;101751.00;;;;4925420;29;20744;-69
2024/01/21 01:51:38;;;;;;;2.97;1.17;;;;;1.60;101758.00;;;;4930778;29;20672;-68
2024/01/21 01:54:29;;;;;;;1.00;1.00;;;;;1.40;101747.00;;;;4929111;29;20240;-69
2024/01/21 01:57:16;;;;;;;1.73;1.23;;;;;1.50;101754.00;;;;4934834;29;20276;-68
2024/01/21 02:00:03;;;;;;;1.37;1.27;;;;;1.50;101746.00;;;;4925164;29;20275;-69
2024/01/21 02:02:52;;;;;;;2.27;1.33;;;;;1.30;101741.00;;;;4930917;29;20877;-67
2024/01/21 02:05:38;;;;;;;1.57;1.33;;;;;1.40;101742.00;;;;4930063;29;20239;-67
2024/01/21 02:08:24;;;;;;;1.93;1.20;;;;;1.40;101731.00;;;;4929406;29;20999;-69
2024/01/21 02:11:10;;;;;;;2.53;1.60;;;;;1.50;101725.00;;;;4931236;29;20230;-69
2024/01/21 02:13:57;;;;;;;1.20;1.10;;;;;1.60;101723.00;;;;4932162;28;20358;-70
2024/01/21 02:16:43;;;;;;;1.20;1.13;;;;;1.50;101725.00;;;;4931230;29;20745;-68
2024/01/21 02:19:31;;;;;;;1.27;1.20;;;;;1.50;101703.00;;;;4937446;29;20369;-66
2024/01/21 02:22:17;;;;;;;1.13;1.07;;;;;1.70;101715.00;;;;4941820;29;20280;-69
2024/01/21 02:25:05;;;;;;;1.40;1.30;;;;;1.90;101704.00;;;;4939781;28;20747;-69
2024/01/21 02:27:52;;;;;;;1.97;1.43;;;;;2.00;101694.00;;;;4941560;29;20239;-70
2024/01/21 02:30:41;;;;;;;1.63;1.47;;;;;1.90;101691.00;;;;4926617;29;20233;-67
2024/01/21 02:33:27;;;;;;;1.73;1.63;;;;;1.80;101692.00;;;;4937468;28;20353;-69
2024/01/21 02:36:14;;;;;;;1.30;1.30;;;;;1.80;101681.00;;;;4935109;29;20246;-69
2024/01/21 02:39:00;;;;;;;2.00;1.17;;;;;1.90;101687.00;;;;4943019;29;20264;-66
2024/01/21 02:41:48;;;;;;;1.43;1.33;;;;;1.70;101672.00;;;;4944501;29;20231;-69
2024/01/21 02:44:34;;;;;;;1.50;1.40;;;;;1.80;101672.00;;;;4937287;28;20731;-70
2024/01/21 02:47:23;;;;;;;3.17;1.60;;;;;1.80;101656.00;;;;4931697;29;20300;-70
2024/01/21 02:50:10;;;;;;;1.60;1.50;;;;;1.90;101668.00;;;;4943848;29;20385;-69
2024/01/21 02:52:56;;;;;;;1.47;1.37;;;;;1.90;101665.00;;;;4937097;28;20238;-69
2024/01/21 02:55:43;;;;;;;1.00;1.00;;;;;1.90;101665.00;;;;4935633;29;20306;-69
2024/01/21 02:58:30;;;;;;;1.20;1.20;;;;;1.80;101652.00;;;;4946367;29;20232;-70
2024/01/21 03:01:17;;;;;;;1.43;1.33;;;;;1.70;101649.00;;;;4941988;29;20236;-70
2024/01/21 03:04:03;;;;;;;1.40;1.30;;;;;1.70;101639.00;;;;4927608;28;20786;-68
2024/01/21 03:06:50;;;;;;;2.97;2.10;;;;;1.90;101645.00;;;;4938089;29;20237;-68
2024/01/21 03:09:37;;;;;;;1.57;1.47;;;;;2.20;101633.00;;;;4936368;29;20287;-69
2024/01/21 03:12:23;;;;;;;1.93;1.40;;;;;2.30;101640.00;;;;4928383;29;20316;-70
2024/01/21 03:15:11;;;;;;;1.13;1.10;;;;;2.30;101629.00;;;;4941891;28;20311;-70
2024/01/21 03:17:57;;;;;;;1.17;1.07;;;;;2.10;101617.00;;;;4934956;29;20236;-67
2024/01/21 03:20:43;;;;;;;1.60;1.50;;;;;2.20;101627.00;;;;4935210;29;20308;-70
2024/01/21 03:23:30;;;;;;;2.13;1.37;;;;;2.20;101614.00;;;;4936611;28;20732;-70
2024/01/21 03:26:16;;;;;;;1.90;1.70;;;;;2.20;101621.00;;;;4928670;29;20710;-70
2024/01/21 03:29:03;;;;;;;1.43;1.33;;;;;2.30;101620.00;;;;4936587;29;20237;-68
2024/01/21 03:31:50;;;;;;;2.33;1.57;;;;;2.30;101604.00;;;;4933968;29;20805;-69
2024/01/21 03:34:41;;;;;;;2.80;1.53;;;;;2.40;101604.00;;;;4925951;28;20246;-69
2024/01/21 03:37:27;;;;;;;2.30;1.57;;;;;2.30;101599.00;;;;4933514;29;20729;-70
2024/01/21 03:40:13;;;;;;;1.60;1.50;;;;;2.20;101594.00;;;;4944643;29;20242;-71
2024/01/21 03:43:00;;;;;;;1.50;1.40;;;;;2.20;101591.00;;;;4924612;28;20239;-71
2024/01/21 03:45:46;;;;;;;3.07;1.93;;;;;2.10;101587.00;;;;4933328;29;20228;-69
2024/01/21 03:48:34;;;;;;;1.40;1.30;;;;;1.90;101588.00;;;;4934254;29;20246;-71
2024/01/21 03:51:20;;;;;;;2.47;1.63;;;;;1.90;101590.00;;;;4928757;29;20271;-71
2024/01/21 03:54:06;;;;;;;2.60;1.97;;;;;1.80;101574.00;;;;4941894;29;20254;-71
2024/01/21 03:56:52;;;;;;;2.83;1.70;;;;;1.70;101575.00;;;;4924850;29;20413;-70
2024/01/21 03:59:39;;;;;;;1.47;1.37;;;;;1.60;101566.00;;;;4932240;29;20233;-70
2024/01/21 04:02:26;;;;;;;3.03;1.47;;;;;1.50;101567.00;;;;4937578;29;20240;-72
2024/01/21 04:05:14;;;;;;;1.20;1.17;;;;;1.30;101569.00;;;;4930152;29;20248;-69
2024/01/21 04:08:00;;;;;;;1.93;1.70;;;;;1.30;101562.00;;;;4932504;29;20618;-69
2024/01/21 04:10:47;;;;;;;1.60;1.50;;;;;1.40;101555.00;;;;4934901;29;20783;-70
2024/01/21 04:13:33;;;;;;;2.03;1.57;;;;;1.50;101546.00;;;;4929474;29;20235;-71
2024/01/21 04:16:20;;;;;;;2.07;1.97;;;;;1.60;101541.00;;;;4936953;29;20370;-71
2024/01/21 04:19:06;;;;;;;3.30;1.90;;;;;1.60;101530.00;;;;4931750;29;20309;-71
2024/01/21 04:21:58;;;;;;;3.63;1.93;;;;;1.50;101535.00;;;;4939838;29;20284;-70
2024/01/21 04:24:46;;;;;;;1.53;1.43;;;;;1.40;101516.00;;;;4934023;29;20240;-71
2024/01/21 04:27:33;;;;;;;1.60;1.47;;;;;1.40;101519.00;;;;4933165;29;20765;-70
2024/01/21 04:30:19;;;;;;;1.30;1.20;;;;;1.50;101510.00;;;;4934863;29;20360;-70
2024/01/21 04:33:06;;;;;;;1.80;1.50;;;;;1.40;101524.00;;;;4930234;29;20724;-68
2024/01/21 04:35:53;;;;;;;1.23;1.20;;;;;1.40;101516.00;;;;4939553;29;20613;-70
2024/01/21 04:38:43;;;;;;;1.77;1.47;;;;;1.30;101506.00;;;;4929991;29;20304;-70
2024/01/21 04:41:29;;;;;;;1.67;1.53;;;;;1.40;101511.00;;;;4927395;29;20258;-71
2024/01/21 04:44:16;;;;;;;3.43;2.43;;;;;1.50;101489.00;;;;4934642;29;20242;-70
2024/01/21 04:47:03;;;;;;;2.23;1.70;;;;;1.60;101483.00;;;;4937801;29;20958;-70
2024/01/21 04:49:49;;;;;;;2.90;1.77;;;;;1.60;101476.00;;;;4944940;29;20249;-72
2024/01/21 04:52:35;;;;;;;1.97;1.67;;;;;1.50;101474.00;;;;4933457;29;20260;-72
2024/01/21 04:55:23;;;;;;;1.57;1.47;;;;;1.60;101474.00;;;;4942888;29;20234;-72
2024/01/21 04:58:09;;;;;;;2.07;1.47;;;;;1.70;101468.00;;;;4938341;29;20716;-71
2024/01/21 05:00:55;;;;;;;1.63;1.40;;;;;1.80;101452.00;;;;4935007;29;20254;-70
2024/01/21 05:03:42;;;;;;;1.97;1.60;;;;;1.80;101465.00;;;;4934035;29;20750;-70
2024/01/21 05:06:29;;;;;;;1.53;1.43;;;;;1.70;101456.00;;;;4936075;29;20360;-70
2024/01/21 05:09:15;;;;;;;1.70;1.60;;;;;1.70;101455.00;;;;4942452;29;20269;-70
2024/01/21 05:12:03;;;;;;;1.47;1.37;;;;;1.60;101453.00;;;;4942541;29;20246;-70
2024/01/21 05:14:49;;;;;;;4.03;1.67;;;;;1.60;101451.00;;;;4931497;29;20238;-70
2024/01/21 05:17:35;;;;;;;2.90;1.33;;;;;1.60;101445.00;;;;4929342;29;20611;-70
2024/01/21 05:20:21;;;;;;;1.57;1.47;;;;;1.80;101437.00;;;;4942677;29;20706;-71
2024/01/21 05:23:08;;;;;;;1.73;1.43;;;;;1.70;101442.00;;;;4939646;28;20235;-70
2024/01/21 05:25:54;;;;;;;1.90;1.50;;;;;1.90;101430.00;;;;4939696;29;20233;-70
2024/01/21 05:28:42;;;;;;;1.83;1.40;;;;;2.10;101419.00;;;;4926890;29;20713;-69
2024/01/21 05:31:32;;;;;;;1.60;1.40;;;;;2.20;101411.00;;;;4936701;29;20232;-70
2024/01/21 05:34:18;;;;;;;1.77;1.40;;;;;2.30;101426.00;;;;4940002;28;20266;-73
2024/01/21 05:37:06;;;;;;;1.43;1.27;;;;;2.20;101412.00;;;;4933389;29;20248;-73
2024/01/21 05:39:52;;;;;;;1.77;1.60;;;;;2.20;101414.00;;;;4938048;29;20238;-72
2024/01/21 05:42:38;;;;;;;2.50;1.60;;;;;2.20;101421.00;;;;4924121;29;20264;-73
2024/01/21 05:45:26;;;;;;;3.27;1.33;;;;;2.10;101420.00;;;;4935138;29;20606;-70
2024/01/21 05:48:13;;;;;;;1.73;1.57;;;;;2.00;101427.00;;;;4942192;29;20239;-71
2024/01/21 05:51:00;;;;;;;1.70;1.43;;;;;2.00;101419.00;;;;4927648;29;20315;-73
2024/01/21 05:53:46;;;;;;;1.90;1.63;;;;;2.00;101416.00;;;;4931829;28;20240;-73
2024/01/21 05:56:32;;;;;;;1.63;1.33;;;;;2.20;101414.00;;;;4930881;29;20812;-73
2024/01/21 05:59:20;;;;;;;1.30;1.30;;;;;2.40;101403.00;;;;4936397;29;20229;-73
2024/01/21 06:02:10;;;;;;;1.63;1.50;;;;;2.50;101408.00;;;;4935055;29;20243;-72
2024/01/21 06:04:57;;;;;;;5.23;1.60;;;;;2.50;101398.00;;;;4933615;29;20353;-73
2024/01/21 06:07:44;;;;;;;2.77;1.47;;;;;2.60;101381.00;;;;4940704;29;20232;-73
2024/01/21 06:10:31;;;;;;;1.60;1.50;;;;;2.80;101370.00;;;;4925198;29;20247;-75
2024/01/21 06:13:17;;;;;;;1.70;1.60;;;;;2.90;101372.00;;;;4928793;29;20885;-71
2024/01/21 06:16:04;;;;;;;2.00;1.40;;;;;2.90;101364.00;;;;4929800;29;20236;-73
2024/01/21 06:18:52;;;;;;;2.07;1.37;;;;;2.90;101360.00;;;;4928095;29;20441;-74
2024/01/21 06:21:42;;;;;;;4.27;2.33;;;;;2.80;101340.00;;;;4921860;29;20248;-73
2024/01/21 06:24:29;;;;;;;1.83;1.73;;;;;3.00;101333.00;;;;4935369;29;20239;-72
2024/01/21 06:27:15;;;;;;;1.50;1.40;;;;;3.00;101335.00;;;;4928532;29;20248;-74
2024/01/21 06:30:11;;;;;;;1.60;1.50;;;;;3.10;101331.00;;;;4931810;29;20232;-74
2024/01/21 06:32:58;;;;;;;1.50;1.40;;;;;3.00;101320.00;;;;4930618;29;20875;-73
2024/01/21 06:35:49;;;;;;;1.40;1.10;;;;;3.00;101343.00;;;;4925502;29;20236;-73
2024/01/21 06:38:36;;;;;;;2.23;2.03;;;;;3.00;101350.00;;;;4931326;29;20242;-73
2024/01/21 06:41:22;;;;;;;1.60;1.50;;;;;3.10;101356.00;;;;4936403;29;20267;-73
2024/01/21 06:44:09;;;;;;;1.93;1.80;;;;;3.10;101359.00;;;;4938262;28;20256;-72
2024/01/21 06:46:55;;;;;;;1.57;1.40;;;;;3.00;101360.00;;;;4934824;29;20315;-73
2024/01/21 06:49:41;;;;;;;1.77;1.50;;;;;3.10;101338.00;;;;4933063;29;20236;-73
2024/01/21 06:52:29;;;;;;;1.50;1.40;;;;;3.10;101322.00;;;;4939861;29;20235;-72
2024/01/21 06:55:16;;;;;;;3.07;1.90;;;;;3.10;101322.00;;;;4941589;28;20237;-73
2024/01/21 06:58:02;;;;;;;1.97;1.60;;;;;3.10;101352.00;;;;4937929;29;20385;-72
2024/01/21 07:00:51;;;;;;;1.80;1.57;;;;;3.20;101362.00;;;;4931392;29;20311;-73
2024/01/21 07:03:38;;;;;;;2.50;1.43;;;;;3.20;101372.00;;;;4941584;29;20322;-73
2024/01/21 07:06:24;;;;;;;1.73;1.60;;;;;3.10;101386.00;;;;4933151;29;20245;-73
2024/01/21 07:09:12;;;;;;;2.80;1.50;;;;;3.10;101399.00;;;;4936319;29;20301;-73
2024/01/21 07:11:58;;;;;;;1.87;1.67;;;;;3.10;101397.00;;;;4926595;29;20288;-72
2024/01/21 07:14:45;;;;;;;1.80;1.70;;;;;3.10;101407.00;;;;4932548;29;20341;-73
2024/01/21 07:17:31;;;;;;;4.63;1.93;;;;;3.10;101410.00;;;;4936783;29;20235;-73
2024/01/21 07:20:17;;;;;;;2.40;1.70;;;;;3.10;101411.00;;;;4935628;29;20232;-74
2024/01/21 07:23:04;;;;;;;2.17;1.80;;;;;3.10;101404.00;;;;4928244;29;20907;-73
2024/01/21 07:25:52;;;;;;;2.70;1.90;;;;;3.00;101404.00;;;;4937046;29;20244;-73
2024/01/21 07:28:38;;;;;;;3.53;1.90;;;;;3.10;101422.00;;;;4933142;29;20307;-72
2024/01/21 07:31:25;;;;;;;3.10;1.50;;;;;3.00;101428.00;;;;4931290;29;20442;-72
2024/01/21 07:34:12;;;;;;;2.23;1.80;;;;;3.00;101420.00;;;;4939923;28;20725;-74
2024/01/21 07:36:59;;;;;;;2.23;1.70;;;;;2.90;101427.00;;;;4928055;29;20835;-74
2024/01/21 07:39:45;;;;;;;2.57;2.37;;;;;3.00;101428.00;;;;4931087;29;20704;-71
2024/01/21 07:42:34;;;;;;;2.10;1.97;;;;;2.80;101419.00;;;;4934425;29;20235;-74
2024/01/21 07:45:20;;;;;;;2.20;1.73;;;;;2.80;101426.00;;;;4926807;29;20741;-74
2024/01/21 07:48:09;;;;;;;2.10;1.70;;;;;2.90;101418.00;;;;4937846;29;20835;-73
2024/01/21 07:50:56;;;;;;;4.20;2.40;;;;;3.00;101437.00;;;;4932678;29;20292;-72
2024/01/21 07:53:42;;;;;;;2.47;2.27;;;;;3.00;101436.00;;;;4931020;29;20869;-73
2024/01/21 07:56:28;;;;;;;2.17;1.90;;;;;3.20;101436.00;;;;4937256;29;20263;-73
2024/01/21 07:59:16;;;;;;;2.23;2.03;;;;;3.30;101430.00;;;;4927000;29;20256;-74
2024/01/21 08:02:02;;;;;;;4.30;2.70;;;;;3.30;101406.00;;;;4928841;29;20240;-73
2024/01/21 08:04:49;;;;;;;3.00;2.23;;;;;3.40;101397.00;;;;4934195;29;20235;-73
2024/01/21 08:07:35;;;;;;;2.63;1.80;;;;;3.40;101406.00;;;;4926165;29;20304;-73
2024/01/21 08:10:21;;;;;;;3.00;2.20;;;;;3.30;101402.00;;;;4928537;29;20228;-73
2024/01/21 08:13:07;;;;;;;5.60;2.20;;;;;3.40;101397.00;;;;4933634;28;21072;-74
2024/01/21 08:15:55;;;;;;;2.33;1.83;;;;;3.40;101387.00;;;;4928426;29;20236;-72
2024/01/21 08:18:41;;;;;;;4.53;2.57;;;;;3.50;101401.00;;;;4933975;29;20296;-75
2024/01/21 08:21:28;;;;;;;3.27;2.03;;;;;3.50;101380.00;;;;4933614;29;20228;-74
2024/01/21 08:24:15;;;;;;;4.80;2.30;;;;;3.50;101376.00;;;;4928923;29;20333;-74
2024/01/21 08:27:02;;;;;;;3.03;2.40;;;;;3.50;101377.00;;;;4930853;29;20236;-72
2024/01/21 08:29:48;;;;;;;3.27;2.30;;;;;3.60;101397.00;;;;4923417;29;20283;-74
2024/01/21 08:32:37;;;;;;;3.63;2.17;;;;;3.60;101387.00;;;;4933904;29;20228;-74
2024/01/21 08:35:24;;;;;;;2.97;2.17;;;;;3.60;101362.00;;;;4929053;29;20285;-74
2024/01/21 08:38:10;;;;;;;2.50;1.90;;;;;3.60;101376.00;;;;4939680;29;20303;-74
2024/01/21 08:40:57;;;;;;;4.37;2.90;;;;;3.60;101401.00;;;;4934188;29;20372;-71
2024/01/21 08:43:43;;;;;;;5.40;2.30;;;;;3.60;101414.00;;;;4937232;28;20314;-71
2024/01/21 08:46:29;;;;;;;3.00;2.10;;;;;3.60;101427.00;;;;4943942;29;20239;-73
2024/01/21 08:49:17;;;;;;;4.07;2.33;;;;;3.60;101449.00;;;;4933434;29;20272;-73
2024/01/21 08:52:04;;;;;;;2.70;2.40;;;;;3.60;101466.00;;;;4935357;29;20738;-72
2024/01/21 08:54:50;;;;;;;4.70;2.23;;;;;3.60;101471.00;;;;4938949;29;20235;-71
2024/01/21 08:57:36;;;;;;;6.27;2.47;;;;;3.80;101457.00;;;;4942594;29;20812;-72
2024/01/21 09:00:23;;;;;;;3.67;2.17;;;;;3.90;101453.00;;;;4935363;29;20236;-74
2024/01/21 09:03:10;;;;;;;3.63;2.20;;;;;3.90;101457.00;;;;4927066;29;20295;-73
2024/01/21 09:05:58;;;;;;;4.17;3.00;;;;;3.90;101462.00;;;;4928654;29;20243;-74
2024/01/21 09:08:45;;;;;;;5.13;2.63;;;;;3.90;101463.00;;;;4930475;29;21011;-75
2024/01/21 09:11:31;;;;;;;2.73;2.17;;;;;4.10;101474.00;;;;4933960;29;20232;-75
2024/01/21 09:14:19;;;;;;;11.30;2.63;;;;;4.10;101480.00;;;;4929551;29;20629;-74
2024/01/21 09:17:06;;;;;;;3.93;2.57;;;;;4.10;101485.00;;;;4925090;29;20233;-74
2024/01/21 09:19:52;;;;;;;3.40;2.70;;;;;4.20;101498.00;;;;4929262;29;20247;-72
2024/01/21 09:22:40;;;;;;;3.80;3.10;;;;;4.20;101484.00;;;;4933993;29;20255;-74
2024/01/21 09:25:26;;;;;;;3.77;2.80;;;;;4.20;101481.00;;;;4944080;28;20248;-74
2024/01/21 09:28:12;;;;;;;4.57;2.23;;;;;4.30;101464.00;;;;4942621;29;20887;-76
2024/01/21 09:30:58;;;;;;;2.93;2.13;;;;;4.20;101474.00;;;;4936750;29;20608;-74
2024/01/21 09:33:45;;;;;;;4.03;2.23;;;;;4.30;101482.00;;;;4937634;28;20237;-74
2024/01/21 09:36:34;;;;;;;4.90;3.17;;;;;4.30;101475.00;;;;4943402;29;20716;-74
2024/01/21 09:39:22;;;;;;;2.73;2.20;;;;;4.40;101471.00;;;;4934811;29;20232;-74
2024/01/21 09:42:11;;;;;;;4.67;2.60;;;;;4.40;101464.00;;;;4929023;29;20233;-73
2024/01/21 09:44:57;;;;;;;3.93;2.23;;;;;4.40;101489.00;;;;4920373;29;20327;-73
2024/01/21 09:47:46;;;;;;;3.97;2.27;;;;;4.40;101486.00;;;;4932063;29;20626;-71
2024/01/21 09:50:33;;;;;;;7.60;3.10;;;;;4.30;101476.00;;;;4931678;29;21043;-73
2024/01/21 09:53:20;;;;;;;5.67;2.90;;;;;4.20;101474.00;;;;4936219;28;20238;-71
2024/01/21 09:56:08;;;;;;;3.53;2.67;;;;;4.20;101473.00;;;;4929220;29;22400;-71
2024/01/21 09:58:56;;;;;;;5.13;2.60;;;;;4.30;101484.00;;;;4932683;29;20236;-72
2024/01/21 10:01:42;;;;;;;3.07;2.40;;;;;4.30;101466.00;;;;4934692;29;20232;-71
2024/01/21 10:04:29;;;;;;;5.97;2.37;;;;;4.40;101474.00;;;;4931372;29;20620;-70
2024/01/21 10:07:16;;;;;;;4.53;2.67;;;;;4.40;101478.00;;;;4927088;29;20241;-72
2024/01/21 10:10:02;;;;;;;2.10;1.90;;;;;4.40;101475.00;;;;4930868;29;20237;-71
2024/01/21 10:12:52;;;;;;;3.57;2.80;;;;;4.50;101474.00;;;;4931250;29;20235;-72
2024/01/21 10:15:38;;;;;;;4.40;2.73;;;;;4.50;101484.00;;;;4933459;29;20721;-70
2024/01/21 10:18:27;;;;;;;4.33;2.90;;;;;4.60;101490.00;;;;4929952;29;21049;-70
2024/01/21 10:21:19;;;;;;;4.07;2.93;;;;;4.60;101491.00;;;;4932246;29;20236;-70
2024/01/21 10:24:07;;;;;;;4.40;2.83;;;;;4.60;101494.00;;;;4931040;28;20277;-71
2024/01/21 10:26:54;;;;;;;5.97;2.97;;;;;4.60;101483.00;;;;4925750;29;20323;-71
2024/01/21 10:29:44;;;;;;;4.70;2.87;;;;;4.70;101471.00;;;;4927754;29;20231;-72
2024/01/21 10:32:32;;;;;;;4.23;2.40;;;;;4.70;101462.00;;;;4925472;29;20376;-72
2024/01/21 10:35:19;;;;;;;4.70;2.80;;;;;4.80;101473.00;;;;4925946;29;20240;-72
2024/01/21 10:38:10;;;;;;;3.70;2.50;;;;;4.80;101472.00;;;;4928282;29;20235;-72
2024/01/21 10:41:00;;;;;;;3.63;2.50;;;;;4.80;101485.00;;;;4932615;29;20298;-72
2024/01/21 10:43:47;;;;;;;4.27;2.57;;;;;4.80;101490.00;;;;4931772;29;20264;-72
2024/01/21 10:46:37;;;;;;;5.23;3.57;;;;;4.80;101492.00;;;;4925263;29;20246;-71
2024/01/21 10:49:23;;;;;;;3.77;2.47;;;;;4.90;101481.00;;;;4926805;29;20233;-73
2024/01/21 10:52:10;;;;;;;4.53;3.03;;;;;4.90;101478.00;;;;4934888;29;20305;-72
2024/01/21 10:54:58;;;;;;;3.30;2.17;;;;;4.90;101483.00;;;;4931978;29;20708;-70
2024/01/21 10:57:47;;;;;;;2.53;2.27;;;;;5.00;101492.00;;;;4935265;29;20355;-73
2024/01/21 11:00:33;;;;;;;3.03;2.00;;;;;5.00;101472.00;;;;4930953;29;20305;-73
2024/01/21 11:03:26;;;;;;;3.23;2.20;;;;;4.90;101467.00;;;;4939367;29;20240;-72
2024/01/21 11:06:13;;;;;;;3.60;3.27;;;;;5.00;101462.00;;;;4937423;29;20268;-72
2024/01/21 11:09:01;;;;;;;4.70;2.97;;;;;5.00;101455.00;;;;4935450;29;20246;-74
2024/01/21 11:11:49;;;;;;;7.20;3.10;;;;;5.10;101459.00;;;;4938402;29;20273;-73
2024/01/21 11:14:42;;;;;;;6.97;3.53;;;;;5.00;101472.00;;;;4935254;29;20318;-73
2024/01/21 11:17:28;;;;;;;4.47;3.13;;;;;5.00;101464.00;;;;4944471;29;20232;-73
2024/01/21 11:20:26;;;;;;;4.13;3.00;;;;;5.00;101470.00;;;;4932937;29;20236;-72
2024/01/21 11:23:16;;;;;;;4.03;2.70;;;;;5.10;101490.00;;;;4938665;28;20300;-73
2024/01/21 11:26:05;;;;;;;3.53;2.50;;;;;5.00;101463.00;;;;4931929;29;20296;-73
2024/01/21 11:28:51;;;;;;;6.30;3.07;;;;;5.10;101471.00;;;;4938461;29;20229;-71
2024/01/21 11:31:37;;;;;;;5.63;3.10;;;;;5.10;101472.00;;;;4944977;29;20705;-72
2024/01/21 11:34:24;;;;;;;5.20;2.80;;;;;5.00;101475.00;;;;4926892;29;20240;-70
2024/01/21 11:37:14;;;;;;;5.30;3.63;;;;;5.00;101481.00;;;;4927794;29;20296;-73
2024/01/21 11:40:03;;;;;;;4.03;2.80;;;;;5.00;101477.00;;;;4944896;29;20243;-73
2024/01/21 11:42:50;;;;;;;4.03;2.80;;;;;4.90;101466.00;;;;4948183;29;20248;-74
2024/01/21 11:45:38;;;;;;;5.50;2.73;;;;;4.80;101470.00;;;;4956208;29;20254;-73
2024/01/21 11:48:31;;;;;;;5.20;3.17;;;;;4.80;101463.00;;;;4934091;29;20244;-71
2024/01/21 11:51:18;;;;;;;5.63;3.00;;;;;4.80;101445.00;;;;4937874;29;20420;-70
2024/01/21 11:54:06;;;;;;;4.37;2.97;;;;;4.70;101443.00;;;;4939107;28;20313;-72
2024/01/21 11:56:53;;;;;;;6.93;2.90;;;;;4.70;101445.00;;;;4932886;29;20248;-72
2024/01/21 11:59:40;;;;;;;4.07;3.07;;;;;4.70;101430.00;;;;4941159;29;20228;-69
2024/01/21 12:02:26;;;;;;;3.80;3.13;;;;;4.80;101438.00;;;;4932493;29;20240;-71
2024/01/21 12:05:18;;;;;;;5.73;3.40;;;;;4.70;101439.00;;;;4940510;29;20351;-72
2024/01/21 12:08:05;;;;;;;6.17;2.50;;;;;4.80;101439.00;;;;4935296;29;20225;-71
2024/01/21 12:10:54;;;;;;;4.50;3.17;;;;;4.80;101426.00;;;;4938236;29;20237;-71
2024/01/21 12:13:40;;;;;;;2.73;2.17;;;;;4.80;101434.00;;;;4932287;29;20257;-70
2024/01/21 12:16:27;;;;;;;5.80;3.57;;;;;4.70;101434.00;;;;4936182;29;20777;-71
2024/01/21 12:19:13;;;;;;;3.97;3.00;;;;;4.80;101433.00;;;;4931456;29;20240;-70
2024/01/21 12:22:02;;;;;;;4.60;2.90;;;;;4.80;101439.00;;;;4943431;29;20280;-70
2024/01/21 12:24:48;;;;;;;5.40;3.20;;;;;4.80;101437.00;;;;4936896;28;20248;-72
2024/01/21 12:27:36;;;;;;;3.27;2.47;;;;;4.80;101435.00;;;;4939520;29;20245;-72
2024/01/21 12:30:25;;;;;;;5.27;3.00;;;;;4.90;101427.00;;;;4927834;29;20308;-72
2024/01/21 12:33:12;;;;;;;6.90;3.00;;;;;5.00;101433.00;;;;4932284;29;20315;-69
2024/01/21 12:35:58;;;;;;;3.93;2.63;;;;;5.00;101413.00;;;;4923864;29;20244;-71
2024/01/21 12:38:44;;;;;;;5.33;3.43;;;;;5.00;101419.00;;;;4934128;29;20308;-70
2024/01/21 12:41:31;;;;;;;4.80;2.93;;;;;5.00;101408.00;;;;4936842;29;20364;-71
2024/01/21 12:44:19;;;;;;;6.53;3.47;;;;;5.10;101418.00;;;;4928214;28;20365;-72
2024/01/21 12:47:06;;;;;;;5.70;3.03;;;;;5.10;101432.00;;;;4940969;29;20236;-71
2024/01/21 12:49:52;;;;;;;4.27;3.00;;;;;5.10;101432.00;;;;4938638;29;20385;-74
2024/01/21 12:52:38;;;;;;;6.90;3.20;;;;;5.20;101428.00;;;;4931193;29;20232;-71
2024/01/21 12:55:25;;;;;;;3.13;2.30;;;;;5.20;101438.00;;;;4930026;29;20276;-74
2024/01/21 12:58:12;;;;;;;4.57;2.80;;;;;5.20;101435.00;;;;4930698;28;20235;-73
2024/01/21 13:00:59;;;;;;;5.53;2.80;;;;;5.20;101451.00;;;;4924739;29;20951;-73
2024/01/21 13:03:47;;;;;;;4.87;2.57;;;;;5.20;101451.00;;;;4929369;29;20236;-70
2024/01/21 13:06:33;;;;;;;3.67;2.87;;;;;5.20;101449.00;;;;4923895;29;20722;-72
2024/01/21 13:09:20;;;;;;;5.50;2.70;;;;;5.20;101447.00;;;;4924431;29;20301;-69
2024/01/21 13:12:06;;;;;;;5.83;3.17;;;;;5.20;101440.00;;;;4929056;29;20621;-71
2024/01/21 13:14:54;;;;;;;6.57;4.13;;;;;5.20;101442.00;;;;4933721;29;20263;-72
2024/01/21 13:17:42;;;;;;;8.07;3.57;;;;;5.30;101449.00;;;;4932793;29;20725;-71
2024/01/21 13:20:28;;;;;;;5.07;2.97;;;;;5.20;101438.00;;;;4930323;29;20240;-72
2024/01/21 13:23:15;;;;;;;5.90;3.30;;;;;5.20;101439.00;;;;4942199;28;20324;-72
2024/01/21 13:26:01;;;;;;;4.30;3.10;;;;;5.20;101440.00;;;;4934557;29;20261;-71
2024/01/21 13:30:43;;;;;;;7.20;3.60;;;;;5.20;101437.00;;;;4933846;29;20240;-71
2024/01/21 13:31:58;;;;;;;4.93;3.07;;;;;5.30;101453.00;;;;4930560;29;20617;-71
2024/01/21 13:34:46;;;;;;;8.00;3.57;;;;;5.20;101452.00;;;;4935110;29;20243;-71
2024/01/21 13:37:32;;;;;;;5.67;2.60;;;;;5.30;101444.00;;;;4932107;29;20242;-71
2024/01/21 13:40:19;;;;;;;5.97;3.23;;;;;5.30;101429.00;;;;4926427;29;20252;-72
2024/01/21 13:43:05;;;;;;;5.67;3.70;;;;;5.30;101432.00;;;;4936988;28;20256;-71
2024/01/21 13:45:51;;;;;;;5.93;3.47;;;;;5.30;101438.00;;;;4936395;29;20248;-72
2024/01/21 13:48:38;;;;;;;6.00;3.30;;;;;5.40;101434.00;;;;4925750;29;20240;-72
2024/01/21 13:51:26;;;;;;;6.57;3.30;;;;;5.40;101435.00;;;;4927706;29;20235;-73
2024/01/21 13:54:12;;;;;;;4.17;3.10;;;;;5.40;101432.00;;;;4939462;28;20315;-71
2024/01/21 13:56:58;;;;;;;5.70;3.47;;;;;5.50;101426.00;;;;4940099;29;20240;-72